createdAt,value
2022-10-17T00:01:14.089Z,8.80
2022-10-17T00:03:43.015Z,8.65
2022-10-17T00:06:16.810Z,8.65
2022-10-17T00:08:44.301Z,8.85
2022-10-17T00:11:22.172Z,9.13
2022-10-17T00:13:53.666Z,9.25
2022-10-17T00:16:25.137Z,9.93
2022-10-17T00:18:51.716Z,9.85
2022-10-17T00:21:19.487Z,9.48
2022-10-17T00:23:49.278Z,9.50
2022-10-17T00:26:20.879Z,9.07
2022-10-17T00:28:53.829Z,8.38
2022-10-17T00:31:22.625Z,8.48
2022-10-17T00:33:51.845Z,9.13
2022-10-17T00:36:23.835Z,11.00
2022-10-17T00:38:57.747Z,9.18
2022-10-17T00:41:29.952Z,10.07
2022-10-17T00:43:58.723Z,9.93
2022-10-17T00:46:33.395Z,9.43
2022-10-17T00:49:10.532Z,11.02
2022-10-17T00:51:41.169Z,9.88
2022-10-17T00:54:09.335Z,9.20
2022-10-17T00:56:36.077Z,9.68
2022-10-17T01:01:35.853Z,9.63
2022-10-17T01:04:02.434Z,9.52
2022-10-17T01:06:31.106Z,9.75
2022-10-17T01:09:00.210Z,9.73
2022-10-17T01:14:05.626Z,9.75
2022-10-17T01:16:48.903Z,10.20
2022-10-17T01:19:33.624Z,9.57
2022-10-17T01:22:05.094Z,10.15
2022-10-17T01:24:37.724Z,10.15
2022-10-17T01:27:26.447Z,9.95
2022-10-17T01:30:29.657Z,9.68
2022-10-17T01:33:08.286Z,9.43
2022-10-17T01:35:42.189Z,9.95
2022-10-17T01:38:27.497Z,9.27
2022-10-17T01:40:57.286Z,8.80
2022-10-17T01:43:39.730Z,9.00
2022-10-17T01:46:16.229Z,9.25
2022-10-17T01:48:48.236Z,8.60
2022-10-17T01:51:27.102Z,9.40
2022-10-17T01:54:01.123Z,10.15
2022-10-17T01:56:31.922Z,9.35
2022-10-17T01:59:09.513Z,10.27
2022-10-17T02:01:40.098Z,9.48
2022-10-17T02:04:16.555Z,9.88
2022-10-17T02:06:43.191Z,9.70
2022-10-17T02:09:41.527Z,9.55
2022-10-17T02:12:26.737Z,9.65
2022-10-17T02:15:01.616Z,9.55
2022-10-17T02:17:49.409Z,9.05
2022-10-17T02:20:20.273Z,10.27
2022-10-17T02:23:09.506Z,9.82
2022-10-17T02:25:45.498Z,9.55
2022-10-17T02:28:21.272Z,8.15
2022-10-17T02:30:54.904Z,8.85
2022-10-17T02:33:27.557Z,9.55
2022-10-17T02:36:01.247Z,8.85
2022-10-17T02:38:29.419Z,9.35
2022-10-17T02:40:59.085Z,9.75
2022-10-17T02:43:30.956Z,9.65
2022-10-17T02:45:57.797Z,11.07
2022-10-17T02:48:31.195Z,10.05
2022-10-17T02:51:00.697Z,11.90
2022-10-17T02:53:54.571Z,10.90
2022-10-17T02:56:29.072Z,11.45
2022-10-17T02:59:02.393Z,10.15
2022-10-17T03:01:31.595Z,10.25
2022-10-17T03:04:14.883Z,10.73
2022-10-17T03:06:41.991Z,10.98
2022-10-17T03:09:11.164Z,10.30
2022-10-17T03:11:42.451Z,10.85
2022-10-17T03:14:09.162Z,10.63
2022-10-17T03:16:35.672Z,10.38
2022-10-17T03:19:04.532Z,11.20
2022-10-17T03:21:31.090Z,10.65
2022-10-17T03:23:59.985Z,10.45
2022-10-17T03:26:29.563Z,10.88
2022-10-17T03:28:56.229Z,10.20
2022-10-17T03:31:27.969Z,10.70
2022-10-17T03:33:54.535Z,10.88
2022-10-17T03:36:23.340Z,12.15
2022-10-17T03:38:53.673Z,11.40
2022-10-17T03:41:20.769Z,10.07
2022-10-17T03:43:47.288Z,11.52
2022-10-17T03:46:13.883Z,10.18
2022-10-17T03:48:40.660Z,10.52
2022-10-17T03:51:13.493Z,11.30
2022-10-17T03:53:39.986Z,10.55
2022-10-17T03:56:17.040Z,10.70
2022-10-17T03:58:47.275Z,11.73
2022-10-17T04:01:16.025Z,10.23
2022-10-17T04:03:54.666Z,10.40
2022-10-17T04:06:22.014Z,11.32
2022-10-17T04:08:48.828Z,10.88
2022-10-17T04:11:18.653Z,11.23
2022-10-17T04:13:48.425Z,11.43
2022-10-17T04:16:19.743Z,11.13
2022-10-17T04:18:52.564Z,11.00
2022-10-17T04:21:21.914Z,10.57
2022-10-17T04:23:48.614Z,10.48
2022-10-17T04:26:15.137Z,10.55
2022-10-17T04:28:41.623Z,11.00
2022-10-17T04:31:12.066Z,10.48
2022-10-17T04:33:41.423Z,10.27
2022-10-17T04:36:14.956Z,11.23
2022-10-17T04:38:41.591Z,10.93
2022-10-17T04:41:15.103Z,10.45
2022-10-17T04:43:47.056Z,10.15
2022-10-17T04:46:17.276Z,10.05
2022-10-17T04:48:43.791Z,10.10
2022-10-17T04:51:20.640Z,10.52
2022-10-17T04:53:50.010Z,10.27
2022-10-17T04:56:19.355Z,10.20
2022-10-17T04:58:48.657Z,10.13
2022-10-17T05:01:18.287Z,9.77
2022-10-17T05:03:48.302Z,11.15
2022-10-17T05:06:20.684Z,9.93
2022-10-17T05:08:48.159Z,9.35
2022-10-17T05:11:22.572Z,9.52
2022-10-17T05:13:57.724Z,9.02
2022-10-17T05:16:24.987Z,9.20
2022-10-17T05:18:54.304Z,9.32
2022-10-17T05:21:23.210Z,9.55
2022-10-17T05:23:52.889Z,9.77
2022-10-17T05:26:19.854Z,8.95
2022-10-17T05:28:48.684Z,9.43
2022-10-17T05:31:15.532Z,9.70
2022-10-17T05:33:46.602Z,9.35
2022-10-17T05:36:15.371Z,9.40
2022-10-17T05:38:42.066Z,8.45
2022-10-17T05:41:10.261Z,9.27
2022-10-17T05:43:36.788Z,9.93
2022-10-17T05:46:05.993Z,8.60
2022-10-17T05:48:35.492Z,9.35
2022-10-17T05:51:04.905Z,9.23
2022-10-17T05:53:35.785Z,8.57
2022-10-17T05:56:10.645Z,8.68
2022-10-17T05:59:00.777Z,7.88
2022-10-17T06:01:29.787Z,9.15
2022-10-17T06:04:01.228Z,8.63
2022-10-17T06:06:27.816Z,8.98
2022-10-17T06:08:56.444Z,8.52
2022-10-17T06:11:23.068Z,8.23
2022-10-17T06:13:51.714Z,8.90
2022-10-17T06:16:21.027Z,8.07
2022-10-17T06:21:24.383Z,9.90
2022-10-17T06:23:51.479Z,9.50
2022-10-17T06:26:20.498Z,8.65
2022-10-17T06:31:18.083Z,9.10
2022-10-17T06:33:47.063Z,9.23
2022-10-17T06:36:14.735Z,10.15
2022-10-17T06:38:44.274Z,8.63
2022-10-17T06:41:18.920Z,9.43
2022-10-17T06:43:48.555Z,9.95
2022-10-17T06:46:17.731Z,9.77
2022-10-17T06:48:46.605Z,9.57
2022-10-17T06:51:15.439Z,9.40
2022-10-17T06:53:44.203Z,9.55
2022-10-17T06:56:13.663Z,10.23
2022-10-17T06:58:40.933Z,10.10
2022-10-17T07:01:13.058Z,10.15
2022-10-17T07:03:41.142Z,10.13
2022-10-17T07:06:08.257Z,9.32
2022-10-17T07:08:34.795Z,10.40
2022-10-17T07:11:13.556Z,10.77
2022-10-17T07:13:40.124Z,10.90
2022-10-17T07:16:07.255Z,10.75
2022-10-17T07:18:33.897Z,10.43
2022-10-17T07:21:04.046Z,11.65
2022-10-17T07:23:36.592Z,11.70
2022-10-17T07:26:09.474Z,11.30
2022-10-17T07:28:40.136Z,11.13
2022-10-17T07:31:09.670Z,11.30
2022-10-17T07:33:38.911Z,12.02
2022-10-17T07:36:06.260Z,11.32
2022-10-17T07:38:35.498Z,11.73
2022-10-17T07:41:04.460Z,11.18
2022-10-17T07:46:01.735Z,10.90
2022-10-17T07:48:28.923Z,10.77
2022-10-17T07:50:57.928Z,10.05
2022-10-17T07:55:51.418Z,10.02
2022-10-17T07:58:18.428Z,10.75
2022-10-17T08:00:48.710Z,10.63
2022-10-17T08:03:17.578Z,10.95
2022-10-17T08:05:44.078Z,10.32
2022-10-17T08:08:10.624Z,9.93
2022-10-17T08:10:42.012Z,9.75
2022-10-17T08:13:09.320Z,10.95
2022-10-17T08:15:37.742Z,11.15
2022-10-17T08:18:06.537Z,11.20
2022-10-17T08:20:40.543Z,10.90
2022-10-17T08:23:11.981Z,11.00
2022-10-17T08:25:41.566Z,11.38
2022-10-17T08:28:10.328Z,11.30
2022-10-17T08:30:41.323Z,10.68
2022-10-17T08:33:07.886Z,11.20
2022-10-17T08:35:34.407Z,11.10
2022-10-17T08:38:01.959Z,11.32
2022-10-17T08:40:31.453Z,10.20
2022-10-17T08:43:13.168Z,11.90
2022-10-17T08:46:03.226Z,11.52
2022-10-17T08:48:42.627Z,10.05
2022-10-17T08:51:27.572Z,12.02
2022-10-17T08:54:17.369Z,10.82
2022-10-17T08:56:51.325Z,10.38
2022-10-17T08:59:24.152Z,10.68
2022-10-17T09:02:17.928Z,10.70
2022-10-17T09:04:59.076Z,10.20
2022-10-17T09:07:37.834Z,10.95
2022-10-17T09:10:04.638Z,10.05
2022-10-17T09:12:43.260Z,10.82
2022-10-17T09:15:38.458Z,11.13
2022-10-17T09:18:07.964Z,10.25
2022-10-17T09:20:41.538Z,10.88
2022-10-17T09:23:20.224Z,11.00
2022-10-17T09:25:52.461Z,11.30
2022-10-17T09:28:25.857Z,10.32
2022-10-17T09:30:58.217Z,7.85
2022-10-17T09:33:53.296Z,9.48
2022-10-17T09:36:29.397Z,8.05
2022-10-17T09:39:05.106Z,7.80
2022-10-17T09:41:47.579Z,8.50
2022-10-17T09:44:15.710Z,8.13
2022-10-17T09:46:51.251Z,8.10
2022-10-17T09:49:25.196Z,7.40
2022-10-17T09:51:51.933Z,7.20
2022-10-17T09:54:24.030Z,6.68
2022-10-17T09:57:02.795Z,7.03
2022-10-17T09:59:57.467Z,7.43
2022-10-17T10:02:25.897Z,6.30
2022-10-17T10:05:08.531Z,5.80
2022-10-17T10:07:38.146Z,6.35
2022-10-17T10:10:27.762Z,5.90
2022-10-17T10:13:14.452Z,6.28
2022-10-17T10:15:43.453Z,5.88
2022-10-17T10:18:27.439Z,6.80
2022-10-17T10:21:08.916Z,5.43
2022-10-17T10:23:42.767Z,5.93
2022-10-17T10:26:27.537Z,5.47
2022-10-17T10:29:01.089Z,5.15
2022-10-17T10:31:34.090Z,5.25
2022-10-17T10:34:15.479Z,5.40
2022-10-17T10:37:22.805Z,6.32
2022-10-17T10:40:00.506Z,5.28
2022-10-17T10:42:34.114Z,5.53
2022-10-17T10:45:43.342Z,5.50
2022-10-17T10:48:23.352Z,5.18
2022-10-17T10:50:51.227Z,5.18
2022-10-17T10:53:38.744Z,5.57
2022-10-17T10:56:05.336Z,4.75
2022-10-17T10:59:02.948Z,4.30
2022-10-17T11:01:57.755Z,4.47
2022-10-17T11:04:42.367Z,4.20
2022-10-17T11:07:28.666Z,4.72
2022-10-17T11:09:55.378Z,5.15
2022-10-17T11:12:27.448Z,3.95
2022-10-17T11:14:58.588Z,5.03
2022-10-17T11:17:36.989Z,4.00
2022-10-17T11:20:15.102Z,4.68
2022-10-17T11:22:50.701Z,3.90
2022-10-17T11:25:41.946Z,4.05
2022-10-17T11:28:17.845Z,3.75
2022-10-17T11:30:52.601Z,4.35
2022-10-17T11:33:30.599Z,3.88
2022-10-17T11:36:04.669Z,3.83
2022-10-17T11:38:42.967Z,4.65
2022-10-17T11:41:21.025Z,4.38
2022-10-17T11:43:55.878Z,4.07
2022-10-17T11:49:07.769Z,4.03
2022-10-17T11:52:01.469Z,3.85
2022-10-17T11:54:36.488Z,4.20
2022-10-17T11:57:13.870Z,4.03
2022-10-17T11:59:58.717Z,3.70
2022-10-17T12:02:35.765Z,4.40
2022-10-17T12:05:25.097Z,3.95
2022-10-17T12:08:28.001Z,4.03
2022-10-17T12:11:04.105Z,4.35
2022-10-17T12:13:35.743Z,4.13
2022-10-17T12:16:20.564Z,3.85
2022-10-17T12:18:51.898Z,4.13
2022-10-17T12:21:20.782Z,4.00
2022-10-17T12:23:55.149Z,3.58
2022-10-17T12:26:30.057Z,4.10
2022-10-17T12:31:29.903Z,3.60
2022-10-17T12:34:03.219Z,4.03
2022-10-17T12:36:31.724Z,3.65
2022-10-17T12:39:01.263Z,3.50
2022-10-17T12:41:40.574Z,3.90
2022-10-17T12:44:13.076Z,4.05
2022-10-17T12:46:51.560Z,3.95
2022-10-17T12:49:43.086Z,3.83
2022-10-17T12:52:48.135Z,3.63
2022-10-17T12:55:18.181Z,3.33
2022-10-17T12:57:56.795Z,3.45
2022-10-17T13:00:29.244Z,3.33
2022-10-17T13:03:06.301Z,3.40
2022-10-17T13:05:36.045Z,3.60
2022-10-17T13:08:06.063Z,4.00
2022-10-17T13:10:41.777Z,3.42
2022-10-17T13:13:20.199Z,3.95
2022-10-17T13:15:56.028Z,3.58
2022-10-17T13:18:27.602Z,3.20
2022-10-17T13:21:14.819Z,3.45
2022-10-17T13:26:12.999Z,3.17
2022-10-17T13:28:41.768Z,3.35
2022-10-17T13:33:57.082Z,3.45
2022-10-17T13:36:24.430Z,3.38
2022-10-17T13:38:51.168Z,3.58
2022-10-17T13:41:40.751Z,3.30
2022-10-17T13:44:28.456Z,3.72
2022-10-17T13:47:00.208Z,3.65
2022-10-17T13:49:35.372Z,3.10
2022-10-17T13:52:05.128Z,3.80
2022-10-17T13:54:36.543Z,4.38
2022-10-17T13:57:04.813Z,3.17
2022-10-17T13:59:39.646Z,3.63
2022-10-17T14:02:13.453Z,3.60
2022-10-17T14:05:04.026Z,3.47
2022-10-17T14:07:58.288Z,3.53
2022-10-17T14:10:25.052Z,3.72
2022-10-17T14:12:55.226Z,3.47
2022-10-17T14:15:28.016Z,3.90
2022-10-17T14:18:01.489Z,3.80
2022-10-17T14:21:08.113Z,3.72
2022-10-17T14:23:32.183Z,3.65
2022-10-17T14:26:12.360Z,4.13
2022-10-17T14:28:40.403Z,4.10
2022-10-17T14:31:35.195Z,3.50
2022-10-17T14:34:04.793Z,3.83
2022-10-17T14:36:42.691Z,4.00
2022-10-17T14:39:20.451Z,3.75
2022-10-17T14:41:48.009Z,3.70
2022-10-17T14:44:27.471Z,4.38
2022-10-17T14:47:00.239Z,5.15
2022-10-17T14:49:37.450Z,3.30
2022-10-17T14:52:28.288Z,4.15
2022-10-17T14:54:55.587Z,3.55
2022-10-17T14:57:23.634Z,3.85
2022-10-17T14:59:55.312Z,3.45
2022-10-17T15:02:24.216Z,4.00
2022-10-17T15:04:50.839Z,4.32
2022-10-17T15:07:21.242Z,3.88
2022-10-17T15:09:49.828Z,3.92
2022-10-17T15:12:18.811Z,4.40
2022-10-17T15:14:45.825Z,4.15
2022-10-17T15:17:18.986Z,3.70
2022-10-17T15:19:45.485Z,4.13
2022-10-17T15:22:16.199Z,3.78
2022-10-17T15:24:48.872Z,3.63
2022-10-17T15:27:18.420Z,4.20
2022-10-17T15:29:50.629Z,4.57
2022-10-17T15:32:17.476Z,4.25
2022-10-17T15:34:44.288Z,4.10
2022-10-17T15:37:21.952Z,4.60
2022-10-17T15:39:54.259Z,4.28
2022-10-17T15:42:28.323Z,3.83
2022-10-17T15:44:55.108Z,4.95
2022-10-17T15:47:24.629Z,4.60
2022-10-17T15:49:54.072Z,4.30
2022-10-17T15:52:23.529Z,4.40
2022-10-17T15:54:50.521Z,3.88
2022-10-17T15:57:20.832Z,4.20
2022-10-17T15:59:48.367Z,5.60
2022-10-17T16:02:18.687Z,5.63
2022-10-17T16:04:47.740Z,5.28
2022-10-17T16:07:14.479Z,4.38
2022-10-17T16:09:43.500Z,4.05
2022-10-17T16:12:33.739Z,4.47
2022-10-17T16:15:00.261Z,4.38
2022-10-17T16:17:26.828Z,4.40
2022-10-17T16:19:53.371Z,4.68
2022-10-17T16:22:33.611Z,4.43
2022-10-17T16:25:09.519Z,4.05
2022-10-17T16:27:42.414Z,5.03
2022-10-17T16:30:13.752Z,3.95
2022-10-17T16:32:40.387Z,4.15
2022-10-17T16:35:08.029Z,4.60
2022-10-17T16:37:35.817Z,4.35
2022-10-17T16:40:04.705Z,4.18
2022-10-17T16:44:58.144Z,4.45
2022-10-17T16:47:26.885Z,4.40
2022-10-17T16:49:58.250Z,4.88
2022-10-17T16:52:24.794Z,3.88
2022-10-17T16:54:51.321Z,4.65
2022-10-17T16:57:17.809Z,4.75
2022-10-17T16:59:46.588Z,4.80
2022-10-17T17:02:21.673Z,4.75
2022-10-17T17:04:48.302Z,4.28
2022-10-17T17:07:14.864Z,4.68
2022-10-17T17:10:03.932Z,4.93
2022-10-17T17:15:17.805Z,4.65
2022-10-17T17:17:50.648Z,4.97
2022-10-17T17:20:44.523Z,4.93
2022-10-17T17:23:15.107Z,4.88
2022-10-17T17:25:42.549Z,4.93
2022-10-17T17:28:09.282Z,5.70
2022-10-17T17:30:35.848Z,5.53
2022-10-17T17:33:02.517Z,4.68
2022-10-17T17:35:32.276Z,5.50
2022-10-17T17:37:58.817Z,5.10
2022-10-17T17:40:25.392Z,5.55
2022-10-17T17:42:51.991Z,5.47
2022-10-17T17:45:20.762Z,5.20
2022-10-17T17:47:47.237Z,5.28
2022-10-17T17:50:13.751Z,5.80
2022-10-17T17:52:45.514Z,5.50
2022-10-17T17:55:12.684Z,5.05
2022-10-17T17:57:41.693Z,5.00
2022-10-17T18:00:11.282Z,5.35
2022-10-17T18:02:42.247Z,5.47
2022-10-17T18:05:10.929Z,5.13
2022-10-17T18:07:38.167Z,6.15
2022-10-17T18:10:08.184Z,4.75
2022-10-17T18:12:34.843Z,4.72
2022-10-17T18:15:05.475Z,4.90
2022-10-17T18:17:31.962Z,5.10
2022-10-17T18:19:58.491Z,4.78
2022-10-17T18:22:27.492Z,6.03
2022-10-17T18:24:54.163Z,5.25
2022-10-17T18:27:20.762Z,5.38
2022-10-17T18:29:50.474Z,5.95
2022-10-17T18:32:17.434Z,5.43
2022-10-17T18:34:51.801Z,6.10
2022-10-17T18:37:27.797Z,6.07
2022-10-17T18:42:47.001Z,6.13
2022-10-17T18:45:14.281Z,5.82
2022-10-17T18:50:37.460Z,6.57
2022-10-17T18:53:04.243Z,5.47
2022-10-17T18:58:11.956Z,6.20
2022-10-17T19:00:38.482Z,6.57
2022-10-17T19:05:56.637Z,6.72
2022-10-17T19:08:31.177Z,6.70
2022-10-17T19:14:16.884Z,7.00
2022-10-17T19:16:54.465Z,7.05
2022-10-17T19:19:26.959Z,7.82
2022-10-17T19:21:53.898Z,6.90
2022-10-17T19:24:35.621Z,7.25
2022-10-17T19:27:15.241Z,7.00
2022-10-17T19:29:43.994Z,7.30
2022-10-17T19:32:15.703Z,7.07
2022-10-17T19:34:51.892Z,7.13
2022-10-17T19:37:24.070Z,7.10
2022-10-17T19:39:53.324Z,8.00
2022-10-17T19:42:19.830Z,7.50
2022-10-17T19:44:46.353Z,7.57
2022-10-17T19:47:12.869Z,7.50
2022-10-17T19:49:39.532Z,7.45
2022-10-17T19:52:06.033Z,7.72
2022-10-17T19:54:38.956Z,7.38
2022-10-17T19:57:09.484Z,7.47
2022-10-17T19:59:39.183Z,6.78
2022-10-17T20:02:05.760Z,7.72
2022-10-17T20:04:34.352Z,7.28
2022-10-17T20:07:01.393Z,7.78
2022-10-17T20:09:27.965Z,6.80
2022-10-17T20:11:54.487Z,7.88
2022-10-17T20:14:23.334Z,7.05
2022-10-17T20:16:52.579Z,7.38
2022-10-17T20:19:21.952Z,7.63
2022-10-17T20:21:48.501Z,6.97
2022-10-17T20:24:16.276Z,7.50
2022-10-17T20:26:47.676Z,6.88
2022-10-17T20:29:19.342Z,7.28
2022-10-17T20:31:47.252Z,7.30
2022-10-17T20:34:18.030Z,7.30
2022-10-17T20:36:44.823Z,7.18
2022-10-17T20:39:17.705Z,7.13
2022-10-17T20:41:44.917Z,7.28
2022-10-17T20:44:11.746Z,8.27
2022-10-17T20:46:44.692Z,8.30
2022-10-17T20:49:17.289Z,7.45
2022-10-17T20:51:46.598Z,7.93
2022-10-17T20:54:13.286Z,7.05
2022-10-17T20:56:42.083Z,7.03
2022-10-17T20:59:14.982Z,7.00
2022-10-17T21:01:42.328Z,7.30
2022-10-17T21:07:01.718Z,8.07
2022-10-17T21:09:28.408Z,7.15
2022-10-17T21:11:55.974Z,7.05
2022-10-17T21:14:24.652Z,7.03
2022-10-17T21:16:52.303Z,7.10
2022-10-17T21:19:19.077Z,7.28
2022-10-17T21:21:46.712Z,7.90
2022-10-17T21:24:18.132Z,8.88
2022-10-17T21:26:50.055Z,8.77
2022-10-17T21:29:21.832Z,8.18
2022-10-17T21:31:48.580Z,8.90
2022-10-17T21:34:24.607Z,9.05
2022-10-17T21:36:54.604Z,11.00
2022-10-17T21:39:24.945Z,9.38
2022-10-17T21:41:52.296Z,9.55
2022-10-17T21:44:21.297Z,9.02
2022-10-17T21:49:16.603Z,9.80
2022-10-17T21:51:44.703Z,9.60
2022-10-17T21:54:11.724Z,9.68
2022-10-17T21:56:40.992Z,9.75
2022-10-17T21:59:11.041Z,9.32
2022-10-17T22:01:45.149Z,9.70
2022-10-17T22:04:17.377Z,10.10
2022-10-17T22:06:45.800Z,9.30
2022-10-17T22:09:23.765Z,9.63
2022-10-17T22:11:56.311Z,8.50
2022-10-17T22:14:24.864Z,9.57
2022-10-17T22:16:54.362Z,10.05
2022-10-17T22:19:24.385Z,9.13
2022-10-17T22:21:58.285Z,9.35
2022-10-17T22:24:27.236Z,9.30
2022-10-17T22:29:20.679Z,9.85
2022-10-17T22:31:47.410Z,9.98
2022-10-17T22:34:15.478Z,8.52
2022-10-17T22:36:42.564Z,9.40
2022-10-17T22:39:14.107Z,9.60
2022-10-17T22:41:40.632Z,9.93
2022-10-17T22:44:10.306Z,9.02
2022-10-17T22:46:37.265Z,9.48
2022-10-17T22:49:08.491Z,10.35
2022-10-17T22:51:35.048Z,9.00
2022-10-17T22:54:01.601Z,9.27
2022-10-17T22:56:28.263Z,9.75
2022-10-17T22:58:54.794Z,9.50
2022-10-17T23:01:23.957Z,9.60
2022-10-17T23:03:51.804Z,9.60
2022-10-17T23:06:21.046Z,9.18
2022-10-17T23:08:50.086Z,8.45
2022-10-17T23:13:43.100Z,8.52
2022-10-17T23:16:12.144Z,9.40
2022-10-17T23:21:13.426Z,9.38
2022-10-17T23:23:42.249Z,8.80
2022-10-17T23:26:13.599Z,9.07
2022-10-17T23:31:23.662Z,8.73
2022-10-17T23:33:50.463Z,10.02
2022-10-17T23:36:24.296Z,9.40
2022-10-17T23:38:56.383Z,9.45
2022-10-17T23:41:25.008Z,10.13
2022-10-17T23:43:54.040Z,9.98
2022-10-17T23:46:20.589Z,9.88
2022-10-17T23:48:47.136Z,10.32
2022-10-17T23:51:16.030Z,9.82
2022-10-17T23:53:47.308Z,9.05
2022-10-17T23:56:13.846Z,9.20
2022-10-17T23:58:45.120Z,9.48
